Time;durP1;ratioP1;P1;durP2;ratioP2;P2;SDS_P1;SDS_P2;PMS_P1;PMS_P2;Temp;Humidity;BMP_temperature;BMP_pressure;BME280_temperature;BME280_humidity;BME280_pressure;Samples;Min_cycle;Max_cycle;Signal;HPM_P1;HPM_P2
2022/06/26 00:01:18;;;;;;;1.93;1.60;;;;;;;20.24;55.44;98542.22;5133148;27;41626;-71
2022/06/26 00:03:45;;;;;;;1.60;1.50;;;;;;;20.20;55.71;98540.84;5133110;27;38791;-71
2022/06/26 00:06:13;;;;;;;1.80;1.43;;;;;;;20.15;55.97;98540.53;5134939;27;41928;-71
2022/06/26 00:08:42;;;;;;;1.90;1.80;;;;;;;20.08;55.83;98539.47;5133036;27;43761;-71
2022/06/26 00:11:10;;;;;;;1.40;1.30;;;;;;;20.05;55.85;98545.19;5133042;27;42102;-72
2022/06/26 00:13:38;;;;;;;1.97;1.53;;;;;;;19.98;56.23;98541.47;5132843;27;39566;-72
2022/06/26 00:16:06;;;;;;;1.70;1.60;;;;;;;19.93;56.11;98547.31;5134464;27;41774;-72
2022/06/26 00:18:35;;;;;;;2.07;1.87;;;;;;;19.89;56.32;98545.13;5132543;27;43599;-72
2022/06/26 00:21:03;;;;;;;1.37;1.27;;;;;;;19.83;56.52;98551.16;5133239;27;43161;-72
2022/06/26 00:23:30;;;;;;;1.63;1.53;;;;;;;19.77;56.60;98541.91;5133550;27;39920;-72
2022/06/26 00:25:59;;;;;;;1.43;1.33;;;;;;;19.71;56.89;98543.38;5115615;27;41984;-72
2022/06/26 00:28:27;;;;;;;1.90;1.80;;;;;;;19.67;58.23;98542.00;5133864;27;43822;-72
2022/06/26 00:30:55;;;;;;;1.70;1.60;;;;;;;19.61;57.59;98547.19;5134189;27;43011;-72
2022/06/26 00:33:23;;;;;;;1.60;1.50;;;;;;;19.55;57.52;98556.72;5115372;27;38750;-72
2022/06/26 00:35:51;;;;;;;1.70;1.60;;;;;;;19.50;57.37;98548.31;5133073;27;42794;-72
2022/06/26 00:38:18;;;;;;;1.90;1.50;;;;;;;19.41;57.68;98548.41;5133818;27;43338;-71
2022/06/26 00:40:46;;;;;;;1.87;1.77;;;;;;;19.40;58.04;98549.41;5133171;27;42992;-72
2022/06/26 00:43:15;;;;;;;1.53;1.30;;;;;;;19.34;57.98;98557.06;5132709;27;39929;-72
2022/06/26 00:45:42;;;;;;;1.50;1.40;;;;;;;19.30;58.01;98558.38;5132646;27;41797;-72
2022/06/26 00:48:11;;;;;;;1.70;1.60;;;;;;;19.26;58.24;98554.34;5132653;27;42695;-72
2022/06/26 00:50:38;;;;;;;1.70;1.60;;;;;;;19.22;57.86;98557.50;5132729;27;41979;-72
2022/06/26 00:53:07;;;;;;;1.50;1.40;;;;;;;19.18;57.86;98566.84;5133752;27;40129;-72
2022/06/26 00:55:35;;;;;;;1.50;1.40;;;;;;;19.14;57.97;98562.81;5132520;27;40751;-71
2022/06/26 00:58:03;;;;;;;1.70;1.60;;;;;;;19.11;58.25;98558.59;5132450;27;42604;-72
2022/06/26 01:00:32;;;;;;;1.63;1.53;;;;;;;19.01;58.52;98556.03;5115001;27;41198;-72
2022/06/26 01:02:59;;;;;;;1.60;1.50;;;;;;;19.04;58.71;98562.09;5114743;27;39952;-72
2022/06/26 01:05:28;;;;;;;1.47;1.27;;;;;;;19.00;58.59;98567.75;5132132;27;43559;-72
2022/06/26 01:07:56;;;;;;;1.60;1.50;;;;;;;18.93;58.71;98561.31;5114743;27;41686;-71
2022/06/26 01:10:25;;;;;;;1.73;1.63;;;;;;;18.93;58.69;98569.34;5133459;27;43319;-72
2022/06/26 01:12:53;;;;;;;1.87;1.77;;;;;;;18.89;58.96;98573.38;5114779;27;40363;-72
2022/06/26 01:15:21;;;;;;;1.67;1.57;;;;;;;18.85;58.73;98574.66;5132334;27;41805;-72
2022/06/26 01:17:51;;;;;;;1.30;1.27;;;;;;;18.81;59.20;98562.56;5131767;27;43307;-72
2022/06/26 01:20:19;;;;;;;1.50;1.40;;;;;;;18.79;58.95;98567.22;5132194;27;42261;-72
2022/06/26 01:22:59;;;;;;;1.50;1.40;;;;;;;18.75;59.08;98565.03;5113601;27;41632;-72
2022/06/26 01:25:27;;;;;;;1.63;1.53;;;;;;;18.72;58.81;98576.91;5128980;27;41735;-72
2022/06/26 01:27:55;;;;;;;1.83;1.63;;;;;;;18.69;59.10;98565.63;5131691;27;42924;-72
2022/06/26 01:30:23;;;;;;;1.90;1.80;;;;;;;18.65;59.92;98565.97;5114885;27;40977;-72
2022/06/26 01:32:50;;;;;;;2.10;2.00;;;;;;;18.62;59.93;98570.78;5114361;27;39298;-72
2022/06/26 01:35:18;;;;;;;1.47;1.37;;;;;;;18.59;59.81;98576.44;5131762;27;41409;-72
2022/06/26 01:37:56;;;;;;;1.80;1.53;;;;;;;18.55;59.73;98570.50;5114456;27;43245;-71
2022/06/26 01:40:25;;;;;;;1.80;1.67;;;;;;;18.52;59.79;98575.34;5131929;27;42887;-71
2022/06/26 01:42:53;;;;;;;2.00;1.90;;;;;;;18.49;59.91;98567.59;5114460;27;38566;-71
2022/06/26 01:45:21;;;;;;;2.03;1.90;;;;;;;18.43;59.75;98568.19;5131773;27;42733;-72
2022/06/26 01:47:49;;;;;;;2.63;1.60;;;;;;;18.42;60.15;98571.91;5131413;27;42786;-72
2022/06/26 01:50:17;;;;;;;1.60;1.50;;;;;;;18.38;60.12;98573.19;5131762;27;42897;-72
2022/06/26 01:52:45;;;;;;;1.60;1.50;;;;;;;18.22;60.60;98544.38;5131416;27;40993;-71
2022/06/26 01:55:13;;;;;;;1.40;1.30;;;;;;;18.30;60.61;98572.09;5131719;27;42735;-72
2022/06/26 01:57:44;;;;;;;1.70;1.60;;;;;;;18.26;61.18;98576.09;5131257;27;42587;-71
2022/06/26 02:00:20;;;;;;;1.57;1.47;;;;;;;18.24;61.05;98571.88;5128400;27;42237;-72
2022/06/26 02:02:48;;;;;;;1.30;1.20;;;;;;;18.21;61.06;98572.16;5131530;27;39808;-71
2022/06/26 02:05:15;;;;;;;2.37;1.67;;;;;;;18.21;60.86;98577.53;5114243;27;40946;-71
2022/06/26 02:07:43;;;;;;;1.60;1.50;;;;;;;18.19;61.03;98582.19;5131138;27;43706;-72
2022/06/26 02:15:43;;;;;;;1.50;1.40;;;;;;;18.17;60.42;98578.84;5131538;27;40530;-71
2022/06/26 02:18:12;;;;;;;1.53;1.43;;;;;;;18.15;61.00;98578.97;5131050;27;43560;-72
2022/06/26 02:20:40;;;;;;;1.60;1.50;;;;;;;18.14;61.18;98581.81;5132554;27;43187;-71
2022/06/26 02:23:11;;;;;;;2.00;1.80;;;;;;;18.11;61.62;98579.41;5130107;27;40867;-72
2022/06/26 02:25:39;;;;;;;1.60;1.50;;;;;;;18.09;61.84;98579.56;5113927;27;41969;-72
2022/06/26 02:28:08;;;;;;;1.67;1.57;;;;;;;18.07;61.68;98586.06;5131124;27;42482;-72
2022/06/26 02:30:36;;;;;;;1.97;1.77;;;;;;;18.04;61.27;98581.88;5132364;27;43090;-72
2022/06/26 02:33:04;;;;;;;1.80;1.57;;;;;;;18.02;61.36;98583.84;5132103;27;40967;-71
2022/06/26 02:35:32;;;;;;;2.27;1.57;;;;;;;18.00;61.30;98591.19;5134457;27;42496;-72
2022/06/26 02:38:00;;;;;;;1.80;1.53;;;;;;;18.00;61.12;98590.34;5134449;27;43826;-71
2022/06/26 02:40:31;;;;;;;1.70;1.50;;;;;;;17.97;61.41;98596.84;5117589;27;42266;-72
2022/06/26 02:42:59;;;;;;;1.80;1.70;;;;;;;17.97;61.39;98587.97;5134940;27;40742;-71
2022/06/26 02:45:29;;;;;;;2.00;1.90;;;;;;;17.94;61.94;98594.44;5134644;27;42545;-72
2022/06/26 02:47:57;;;;;;;1.80;1.70;;;;;;;17.92;62.62;98621.41;5134131;27;42806;-72
2022/06/26 02:50:25;;;;;;;3.17;1.97;;;;;;;17.88;65.66;98613.81;5134577;27;43301;-72
2022/06/26 02:52:53;;;;;;;2.10;1.90;;;;;;;17.84;66.71;98604.38;5134466;27;39922;-71
2022/06/26 02:55:20;;;;;;;2.57;2.20;;;;;;;17.83;65.43;98624.13;5134598;27;41839;-72
2022/06/26 02:57:48;;;;;;;2.10;2.00;;;;;;;17.82;65.46;98625.09;5134100;27;43721;-72
2022/06/26 03:00:16;;;;;;;2.40;1.87;;;;;;;17.83;65.73;98616.06;5134418;27;42304;-72
2022/06/26 03:02:48;;;;;;;2.33;2.13;;;;;;;17.85;65.83;98619.47;5116823;27;39080;-72
2022/06/26 03:05:16;;;;;;;2.10;1.90;;;;;;;17.88;67.24;98619.16;5117094;27;41604;-71
2022/06/26 03:07:44;;;;;;;2.30;2.10;;;;;;;17.93;67.26;98608.84;5135126;27;42708;-71
2022/06/26 03:10:12;;;;;;;2.90;2.20;;;;;;;17.90;66.92;98618.03;5134307;27;42383;-71
2022/06/26 03:12:45;;;;;;;2.30;2.10;;;;;;;17.98;66.07;98619.13;5134070;27;40885;-72
2022/06/26 03:15:13;;;;;;;2.50;2.30;;;;;;;17.98;67.19;98611.09;5134167;27;41824;-72
2022/06/26 03:17:41;;;;;;;2.33;2.13;;;;;;;17.94;67.49;98615.88;5133779;27;43910;-72
2022/06/26 03:20:14;;;;;;;3.57;2.00;;;;;;;18.01;67.74;98622.34;5116999;27;42613;-72
2022/06/26 03:22:43;;;;;;;2.67;2.47;;;;;;;18.02;68.45;98625.88;5132166;27;39885;-72
2022/06/26 03:25:11;;;;;;;2.80;2.30;;;;;;;18.03;68.46;98616.84;5116831;27;41520;-72
2022/06/26 03:27:40;;;;;;;2.17;2.00;;;;;;;18.03;67.71;98623.06;5133577;27;42873;-72
2022/06/26 03:30:11;;;;;;;1.77;1.67;;;;;;;18.05;68.03;98614.88;5134087;27;42060;-72
2022/06/26 03:32:39;;;;;;;2.73;1.93;;;;;;;18.06;67.34;98622.72;5133857;27;39398;-72
2022/06/26 03:35:12;;;;;;;2.17;2.07;;;;;;;18.07;67.33;98619.06;5116633;27;40605;-72
2022/06/26 03:37:40;;;;;;;2.23;2.03;;;;;;;18.09;66.91;98627.81;5133402;27;42981;-72
2022/06/26 03:40:10;;;;;;;1.90;1.67;;;;;;;18.10;66.46;98634.00;5133902;27;42050;-71
2022/06/26 03:42:38;;;;;;;2.03;1.93;;;;;;;18.10;66.58;98640.22;5133647;27;40942;-72
2022/06/26 03:45:07;;;;;;;1.60;1.50;;;;;;;18.10;66.63;98634.00;5133326;27;41576;-72
2022/06/26 03:47:36;;;;;;;2.30;2.10;;;;;;;18.12;66.51;98640.06;5134389;27;43637;-72
2022/06/26 03:50:06;;;;;;;2.50;2.30;;;;;;;18.12;66.31;98638.25;5133567;27;42342;-72
2022/06/26 03:52:36;;;;;;;2.13;1.97;;;;;;;18.15;66.11;98646.00;5131913;27;39815;-72
2022/06/26 03:55:09;;;;;;;1.53;1.43;;;;;;;18.17;65.56;98630.59;5130539;27;42545;-71
2022/06/26 03:57:38;;;;;;;1.80;1.60;;;;;;;18.23;65.38;98629.16;5133535;27;42663;-72
2022/06/26 04:00:07;;;;;;;2.00;1.90;;;;;;;18.28;65.35;98633.09;5116390;27;41272;-72
2022/06/26 04:02:45;;;;;;;1.97;1.87;;;;;;;18.28;65.03;98638.44;5132934;27;40360;-72
2022/06/26 04:05:18;;;;;;;1.73;1.60;;;;;;;18.34;64.92;98628.09;5130394;27;42534;-72
2022/06/26 04:07:48;;;;;;;1.27;1.23;;;;;;;18.41;64.86;98632.72;5133037;27;42735;-72
2022/06/26 04:10:21;;;;;;;1.80;1.70;;;;;;;18.48;64.70;98630.28;5130274;27;43005;-72
2022/06/26 04:12:49;;;;;;;2.00;1.80;;;;;;;18.58;64.24;98633.75;5115855;27;40269;-71
2022/06/26 04:15:17;;;;;;;2.67;1.80;;;;;;;18.67;64.31;98633.69;5133346;27;41702;-72
2022/06/26 04:17:45;;;;;;;1.73;1.63;;;;;;;18.76;64.15;98639.16;5132772;27;43791;-72
2022/06/26 04:20:16;;;;;;;1.83;1.73;;;;;;;18.94;63.73;98638.13;5133315;27;41756;-72
2022/06/26 04:22:57;;;;;;;2.17;2.07;;;;;;;19.17;63.79;98632.28;5131409;27;40182;-73
2022/06/26 04:25:25;;;;;;;2.30;2.20;;;;;;;19.40;63.47;98630.81;5130009;27;41845;-72
2022/06/26 04:27:53;;;;;;;2.87;2.50;;;;;;;19.64;63.58;98622.94;5115386;27;43020;-72
2022/06/26 04:30:22;;;;;;;2.30;2.10;;;;;;;19.87;63.47;98638.53;5115743;27;41430;-72
2022/06/26 04:32:50;;;;;;;2.50;2.30;;;;;;;20.02;62.65;98628.84;5132736;27;40864;-72
2022/06/26 04:35:18;;;;;;;2.63;2.43;;;;;;;20.29;62.42;98650.13;5115631;27;41565;-72
2022/06/26 04:37:46;;;;;;;2.10;2.00;;;;;;;20.47;61.79;98641.16;5132570;27;43557;-72
2022/06/26 04:40:16;;;;;;;2.43;2.10;;;;;;;20.62;61.04;98645.75;5132748;27;42422;-72
2022/06/26 04:42:45;;;;;;;2.57;2.10;;;;;;;20.66;60.89;98641.69;5132769;27;41296;-72
2022/06/26 04:45:13;;;;;;;1.93;1.83;;;;;;;20.75;60.30;98642.56;5132693;27;42691;-72
2022/06/26 04:47:43;;;;;;;2.30;2.10;;;;;;;20.93;60.64;98643.25;5132277;27;43868;-72
2022/06/26 04:50:14;;;;;;;2.20;2.00;;;;;;;21.09;60.35;98642.44;5115258;27;42179;-72
2022/06/26 04:52:44;;;;;;;2.53;2.07;;;;;;;21.25;59.13;98652.41;5132626;27;40622;-72
2022/06/26 04:55:13;;;;;;;4.17;2.40;;;;;;;21.38;58.97;98658.97;5132568;27;41706;-72
2022/06/26 04:57:45;;;;;;;1.80;1.70;;;;;;;21.52;58.65;98662.81;5130109;27;43272;-72
2022/06/26 05:00:15;;;;;;;2.00;1.80;;;;;;;21.61;58.55;98667.22;5133562;27;43155;-72
2022/06/26 05:03:03;;;;;;;1.83;1.73;;;;;;;21.68;58.51;98665.50;5124637;27;39108;-72
2022/06/26 05:05:47;;;;;;;2.37;2.00;;;;;;;21.69;58.59;98674.44;5129366;27;41485;-72
2022/06/26 05:08:41;;;;;;;1.90;1.70;;;;;;;21.67;58.68;98669.22;5124116;27;43412;-73
2022/06/26 05:11:09;;;;;;;2.03;1.93;;;;;;;21.66;59.02;98662.13;5133406;27;42304;-72
2022/06/26 05:13:41;;;;;;;2.10;1.70;;;;;;;21.64;58.78;98669.53;5114509;27;38679;-72
2022/06/26 05:16:32;;;;;;;2.00;1.90;;;;;;;21.55;58.98;98662.50;5131742;27;42335;-72
2022/06/26 05:19:02;;;;;;;2.17;1.97;;;;;;;21.55;58.95;98681.34;5114566;27;44616;-72
2022/06/26 05:21:31;;;;;;;2.10;2.00;;;;;;;21.26;58.99;98638.78;5131678;27;42317;-72
2022/06/26 05:23:59;;;;;;;1.70;1.60;;;;;;;21.40;59.35;98673.09;5114700;27;40211;-72
2022/06/26 05:26:28;;;;;;;1.77;1.60;;;;;;;21.31;59.30;98678.66;5131515;27;41859;-72
2022/06/26 05:28:58;;;;;;;1.90;1.50;;;;;;;21.21;59.41;98688.75;5148912;27;43583;-72
2022/06/26 05:31:26;;;;;;;1.87;1.77;;;;;;;21.12;59.59;98680.66;5131199;27;42352;-72
2022/06/26 05:33:54;;;;;;;1.90;1.67;;;;;;;21.06;59.41;98681.31;5131745;27;39784;-72
2022/06/26 05:36:22;;;;;;;3.03;1.50;;;;;;;21.02;59.69;98690.72;5131669;27;41806;-72
2022/06/26 05:38:51;;;;;;;1.50;1.40;;;;;;;21.02;59.69;98696.09;5131701;27;42370;-72
2022/06/26 05:41:19;;;;;;;2.00;1.90;;;;;;;21.14;59.09;98689.38;5114484;27;41151;-72
2022/06/26 05:43:50;;;;;;;1.77;1.37;;;;;;;21.36;58.83;98676.31;5114570;27;39575;-72
2022/06/26 05:46:20;;;;;;;1.57;1.47;;;;;;;21.57;58.52;98679.34;5131907;27;42060;-73
2022/06/26 05:49:08;;;;;;;1.60;1.50;;;;;;;21.79;57.62;98686.72;5098994;27;42970;-72
2022/06/26 05:51:53;;;;;;;1.93;1.83;;;;;;;21.95;57.41;98682.31;5129201;27;43049;-72
2022/06/26 05:54:27;;;;;;;1.30;1.20;;;;;;;22.20;56.65;98679.41;5128542;27;39855;-73
2022/06/26 05:57:08;;;;;;;1.40;1.30;;;;;;;22.72;55.72;98683.41;5130761;27;41799;-72
2022/06/26 06:00:07;;;;;;;1.83;1.73;;;;;;;22.98;54.76;98688.50;5117350;27;45551;-72
2022/06/26 06:02:48;;;;;;;1.10;1.10;;;;;;;23.11;54.16;98703.13;5131366;27;42167;-72
2022/06/26 06:05:20;;;;;;;1.30;1.20;;;;;;;23.18;54.21;98701.34;5128459;27;40794;-72
2022/06/26 06:07:49;;;;;;;1.77;1.40;;;;;;;23.23;53.93;98696.28;5130939;27;41798;-72
2022/06/26 06:10:19;;;;;;;1.80;1.43;;;;;;;23.29;54.13;98695.53;5113967;27;43186;-72
2022/06/26 06:12:51;;;;;;;1.23;1.17;;;;;;;23.40;53.93;98705.06;5130176;27;42294;-72
2022/06/26 06:15:19;;;;;;;1.30;1.20;;;;;;;23.41;53.38;98697.81;5131124;27;39992;-72
2022/06/26 06:17:50;;;;;;;2.73;1.60;;;;;;;23.61;53.73;98709.84;5130996;27;41455;-72
2022/06/26 06:20:20;;;;;;;1.50;1.40;;;;;;;23.73;53.26;98721.06;5131042;27;42606;-73
2022/06/26 06:22:53;;;;;;;1.73;1.30;;;;;;;23.85;52.89;98731.28;5129386;27;42094;-72
2022/06/26 06:25:23;;;;;;;2.20;1.40;;;;;;;23.97;52.68;98732.50;5128165;27;40015;-72
2022/06/26 06:27:51;;;;;;;1.30;1.20;;;;;;;24.10;52.72;98736.44;5130886;27;42467;-72
2022/06/26 06:30:22;;;;;;;1.43;1.33;;;;;;;24.19;52.16;98746.16;5113925;27;42427;-72
2022/06/26 06:32:53;;;;;;;1.33;1.30;;;;;;;24.26;51.91;98741.69;5130593;27;43361;-72
2022/06/26 06:35:35;;;;;;;1.20;1.10;;;;;;;24.42;51.81;98746.94;5113858;27;39037;-71
2022/06/26 06:38:04;;;;;;;1.20;1.20;;;;;;;24.55;51.27;98749.81;5113539;27;41007;-72
2022/06/26 06:40:33;;;;;;;1.60;1.50;;;;;;;24.75;51.04;98751.94;5130809;27;43538;-72
2022/06/26 06:43:03;;;;;;;1.20;1.20;;;;;;;24.96;50.72;98749.34;5113695;27;42488;-73
2022/06/26 06:45:50;;;;;;;1.37;1.27;;;;;;;25.18;49.82;98750.22;5130824;27;41132;-72
2022/06/26 06:48:21;;;;;;;1.77;1.37;;;;;;;25.38;49.30;98749.41;5130662;27;41796;-72
2022/06/26 06:51:08;;;;;;;1.57;1.47;;;;;;;25.68;49.03;98762.88;5130832;27;43191;-72
2022/06/26 06:53:35;;;;;;;1.47;1.30;;;;;;;25.77;48.30;98770.69;5130580;27;42921;-72
2022/06/26 06:56:03;;;;;;;1.33;1.23;;;;;;;25.85;48.46;98766.97;5113409;27;39187;-73
2022/06/26 06:58:31;;;;;;;1.87;1.50;;;;;;;25.89;48.44;98760.13;5130548;27;41842;-73
2022/06/26 07:00:58;;;;;;;1.50;1.40;;;;;;;25.94;48.28;98760.41;5130788;27;42665;-72
2022/06/26 07:03:27;;;;;;;1.93;1.10;;;;;;;26.04;47.91;98758.19;5130508;27;43210;-73
2022/06/26 07:05:56;;;;;;;1.10;1.10;;;;;;;26.22;47.17;98764.97;5113504;27;38814;-73
2022/06/26 07:08:23;;;;;;;1.50;1.40;;;;;;;26.76;46.51;98770.56;5131792;27;41765;-73
2022/06/26 07:10:51;;;;;;;1.50;1.40;;;;;;;27.10;44.88;98777.84;5130717;27;43490;-73
2022/06/26 07:13:20;;;;;;;1.53;1.43;;;;;;;27.36;44.61;98780.66;5113264;27;43045;-72
2022/06/26 07:15:47;;;;;;;1.53;1.20;;;;;;;27.42;45.09;98777.16;5130655;27;41353;-72
2022/06/26 07:18:15;;;;;;;1.37;1.27;;;;;;;27.46;45.23;98767.50;5131591;27;41532;-72
2022/06/26 07:20:44;;;;;;;1.50;1.30;;;;;;;27.49;45.60;98768.97;5132442;27;43309;-72
2022/06/26 07:23:12;;;;;;;1.63;1.40;;;;;;;27.54;46.00;98761.91;5116078;27;41156;-73
2022/06/26 07:25:56;;;;;;;1.17;1.17;;;;;;;27.66;45.08;98777.63;5130980;27;39948;-73
2022/06/26 07:28:30;;;;;;;1.53;1.20;;;;;;;27.79;44.87;98774.94;5133604;27;42683;-73
2022/06/26 07:30:57;;;;;;;1.40;1.30;;;;;;;28.11;43.51;98782.25;5133808;27;43563;-70
2022/06/26 07:36:13;;;;;;;0.93;0.93;;;;;;;30.10;40.42;98799.59;5133922;27;40918;-73
2022/06/26 07:38:40;;;;;;;1.60;1.50;;;;;;;31.20;38.92;98799.78;5133435;27;40503;-72
2022/06/26 07:41:08;;;;;;;2.17;1.40;;;;;;;32.02;37.92;98817.41;5116742;27;43190;-73
2022/06/26 07:43:37;;;;;;;1.80;1.40;;;;;;;32.80;35.72;98828.13;5133572;27;42289;-73
2022/06/26 07:46:04;;;;;;;2.20;1.40;;;;;;;33.80;33.87;98836.00;5116409;27;39747;-70
2022/06/26 07:48:33;;;;;;;2.00;1.60;;;;;;;34.51;33.37;98829.84;5133250;27;42724;-70
2022/06/26 07:51:02;;;;;;;1.70;1.60;;;;;;;34.68;32.97;98834.50;5133491;27;43728;-72
2022/06/26 07:53:32;;;;;;;1.60;1.50;;;;;;;34.59;32.60;98834.94;5134441;27;43211;-71
2022/06/26 07:56:00;;;;;;;1.50;1.40;;;;;;;34.83;32.43;98843.84;5134741;27;39993;-70
2022/06/26 07:58:27;;;;;;;1.47;1.37;;;;;;;34.91;30.81;98837.06;5134685;27;41693;-73
2022/06/26 08:00:55;;;;;;;1.40;1.30;;;;;;;34.88;30.99;98840.31;5134686;27;43482;-71
2022/06/26 08:03:23;;;;;;;1.40;1.30;;;;;;;35.68;30.24;98839.72;5134419;27;42172;-72
2022/06/26 08:05:51;;;;;;;1.33;1.30;;;;;;;36.71;29.23;98836.88;5133045;27;38932;-72
2022/06/26 08:08:19;;;;;;;2.10;1.40;;;;;;;37.66;27.55;98860.59;5134536;27;41825;-71
2022/06/26 08:10:48;;;;;;;1.13;1.13;;;;;;;39.02;26.18;98859.91;5134185;27;42683;-71
2022/06/26 08:13:15;;;;;;;1.27;1.27;;;;;;;40.37;24.50;98869.00;5132851;27;41722;-71
2022/06/26 08:15:43;;;;;;;1.63;1.10;;;;;;;41.64;23.58;98856.59;5134472;27;41019;-72
2022/06/26 08:18:11;;;;;;;1.20;1.20;;;;;;;43.05;22.23;98872.19;5134870;27;41664;-72
2022/06/26 08:20:39;;;;;;;1.17;0.80;;;;;;;44.13;20.94;98873.28;5134260;27;43526;-72
2022/06/26 08:23:07;;;;;;;1.17;1.10;;;;;;;44.92;20.41;98879.13;5133825;27;43109;-72
2022/06/26 08:25:35;;;;;;;1.35;1.08;;;;;;;45.52;19.85;98881.41;5134595;27;39679;-72
2022/06/26 08:28:04;;;;;;;0.90;0.90;;;;;;;45.78;19.08;98878.66;5134208;27;41774;-72
2022/06/26 08:30:32;;;;;;;1.38;1.27;;;;;;;45.53;19.53;98877.47;5134361;27;42836;-72
2022/06/26 08:33:00;;;;;;;1.05;1.05;;;;;;;45.33;19.46;98861.25;5133785;27;42206;-72
2022/06/26 08:35:28;;;;;;;0.90;0.90;;;;;;;44.83;20.28;98857.88;5132959;27;40763;-72
2022/06/26 08:37:57;;;;;;;1.10;1.10;;;;;;;44.32;20.36;98854.38;5115306;27;41753;-73
2022/06/26 08:40:25;;;;;;;1.08;1.00;;;;;;;44.23;19.67;98855.47;5133843;27;43848;-71
2022/06/26 08:42:53;;;;;;;0.95;0.95;;;;;;;44.27;19.83;98857.28;5133863;27;43228;-71
2022/06/26 08:45:23;;;;;;;1.83;0.90;;;;;;;44.77;19.69;98859.16;5132656;27;38846;-71
2022/06/26 08:47:53;;;;;;;1.83;0.95;;;;;;;45.30;18.82;98864.69;5132278;27;40507;-72
2022/06/26 08:50:22;;;;;;;1.10;1.00;;;;;;;45.76;18.41;98865.00;5133624;27;43305;-73
2022/06/26 08:52:52;;;;;;;1.15;1.10;;;;;;;46.10;18.51;98866.22;5132436;27;43247;-72
2022/06/26 08:55:21;;;;;;;1.08;1.08;;;;;;;45.86;18.48;98874.25;5133766;27;39851;-72
2022/06/26 08:57:50;;;;;;;1.17;0.93;;;;;;;45.14;18.93;98853.13;5132476;27;40695;-72
2022/06/26 09:00:18;;;;;;;1.00;1.00;;;;;;;44.54;19.62;98850.78;5132361;27;43595;-72
2022/06/26 09:02:55;;;;;;;1.52;1.05;;;;;;;44.68;19.29;98859.09;5131301;27;41585;-72
2022/06/26 09:05:23;;;;;;;1.13;1.10;;;;;;;45.10;18.78;98857.69;5133629;27;39867;-72
2022/06/26 09:07:52;;;;;;;0.95;0.95;;;;;;;45.44;18.93;98862.59;5132031;27;42096;-73
2022/06/26 09:10:21;;;;;;;1.10;1.00;;;;;;;45.43;18.92;98855.38;5132079;27;41650;-72
2022/06/26 09:12:52;;;;;;;1.25;1.10;;;;;;;45.55;18.15;98863.97;5114402;27;42013;-72
2022/06/26 09:15:22;;;;;;;0.90;0.90;;;;;;;45.61;18.04;98868.28;5132144;27;39268;-72
2022/06/26 09:17:59;;;;;;;0.98;0.90;;;;;;;45.40;18.52;98864.41;5133078;27;42674;-72
2022/06/26 09:20:27;;;;;;;1.10;1.00;;;;;;;45.73;18.50;98867.66;5130124;27;42823;-72
2022/06/26 09:22:56;;;;;;;0.90;0.90;;;;;;;46.78;17.83;98872.94;5131724;27;41130;-73
2022/06/26 09:25:38;;;;;;;1.00;0.90;;;;;;;47.09;16.95;98872.72;5133406;27;39739;-72
2022/06/26 09:28:07;;;;;;;0.80;0.80;;;;;;;46.97;17.08;98870.59;5132351;27;42029;-73
2022/06/26 09:30:46;;;;;;;1.08;1.08;;;;;;;46.43;17.87;98873.00;5114501;27;42084;-72
2022/06/26 09:33:15;;;;;;;1.05;1.05;;;;;;;45.28;18.34;98851.03;5131174;27;43119;-72
2022/06/26 09:35:44;;;;;;;1.02;1.02;;;;;;;44.64;19.09;98838.50;5133124;27;40044;-72
2022/06/26 09:38:17;;;;;;;1.20;1.20;;;;;;;45.21;19.23;98853.50;5114316;27;42333;-73
2022/06/26 09:40:50;;;;;;;1.85;1.08;;;;;;;46.45;17.66;98859.47;5131588;27;41715;-73
2022/06/26 09:43:26;;;;;;;0.80;0.80;;;;;;;47.54;16.41;98857.00;5131994;27;42252;-73
2022/06/26 09:45:55;;;;;;;0.80;0.80;;;;;;;48.46;15.97;98847.75;5129834;27;39972;-73
2022/06/26 09:48:25;;;;;;;1.95;1.08;;;;;;;49.30;15.97;98848.31;5130963;27;40608;-73
2022/06/26 09:50:54;;;;;;;0.98;0.90;;;;;;;49.84;14.62;98844.00;5131181;27;42850;-73
2022/06/26 09:53:23;;;;;;;0.90;0.90;;;;;;;50.37;14.31;98847.66;5132580;27;42345;-73
2022/06/26 09:55:53;;;;;;;0.80;0.80;;;;;;;50.75;14.58;98840.66;5114313;27;39048;-74
2022/06/26 09:58:21;;;;;;;0.80;0.80;;;;;;;50.86;14.45;98847.41;5131429;27;41908;-72
2022/06/26 10:06:36;;;;;;;0.75;0.75;;;;;;;49.16;15.65;98843.03;5129704;27;41004;-73
2022/06/26 10:09:05;;;;;;;0.75;0.75;;;;;;;48.14;15.95;98829.69;5128473;27;41963;-72
2022/06/26 10:11:35;;;;;;;1.13;0.90;;;;;;;46.94;16.15;98823.59;5130889;27;41910;-73
2022/06/26 10:14:06;;;;;;;1.00;1.00;;;;;;;45.87;17.13;98797.53;5131348;27;42440;-73
2022/06/26 10:17:00;;;;;;;1.00;0.90;;;;;;;44.98;17.90;98815.53;5129588;27;40943;-77
2022/06/26 10:19:36;;;;;;;0.90;0.90;;;;;;;44.06;19.27;98800.31;5128381;27;43203;-78
2022/06/26 10:22:04;;;;;;;1.00;1.00;;;;;;;43.69;19.99;98796.69;5130896;27;42940;-78
2022/06/26 10:24:32;;;;;;;0.88;0.88;;;;;;;43.40;19.02;98810.13;5131412;27;42117;-77
2022/06/26 10:27:03;;;;;;;1.00;1.00;;;;;;;42.80;19.74;98804.66;5131299;27;39867;-77
2022/06/26 10:29:36;;;;;;;1.02;1.00;;;;;;;42.35;20.59;98789.56;5129395;27;41462;-77
2022/06/26 10:32:05;;;;;;;1.35;1.08;;;;;;;41.91;20.40;98779.69;5130543;27;42706;-77
2022/06/26 10:34:35;;;;;;;0.90;0.90;;;;;;;41.55;20.62;98801.63;5113916;27;44223;-78
2022/06/26 10:37:06;;;;;;;3.42;1.20;;;;;;;41.48;21.59;98795.59;5097459;27;39012;-77
2022/06/26 10:39:42;;;;;;;0.95;0.95;;;;;;;41.27;21.28;98783.09;5114792;27;41678;-79
2022/06/26 10:45:04;;;;;;;1.00;1.00;;;;;;;40.78;20.88;98789.78;5132505;27;43236;-76
2022/06/26 10:47:46;;;;;;;0.80;0.80;;;;;;;40.37;21.57;98777.38;5131466;27;38717;-76
2022/06/26 10:50:27;;;;;;;0.90;0.90;;;;;;;40.06;21.90;98782.38;5131181;27;42848;-76
2022/06/26 10:52:56;;;;;;;1.55;1.45;;;;;;;39.78;21.21;98781.97;5130902;27;43155;-76
2022/06/26 10:55:23;;;;;;;0.90;0.90;;;;;;;39.34;22.22;98770.84;5132537;27;41993;-77
2022/06/26 10:57:53;;;;;;;1.20;1.20;;;;;;;38.73;23.57;98762.75;5117517;27;39904;-77
2022/06/26 11:00:21;;;;;;;1.80;1.07;;;;;;;38.39;24.18;98754.22;5100310;27;42137;-77
2022/06/26 11:02:49;;;;;;;1.20;1.20;;;;;;;38.34;24.54;98747.84;5134046;27;42145;-77
2022/06/26 11:05:19;;;;;;;1.00;1.00;;;;;;;38.26;25.27;98740.97;5117302;27;43064;-77
2022/06/26 11:07:50;;;;;;;1.40;1.30;;;;;;;38.45;24.68;98743.97;5116922;27;40267;-77
2022/06/26 11:10:20;;;;;;;1.30;1.20;;;;;;;38.49;24.66;98742.28;5134869;27;40986;-77
2022/06/26 11:12:51;;;;;;;1.10;1.10;;;;;;;38.44;25.55;98734.03;5134139;27;43488;-77
2022/06/26 11:15:27;;;;;;;1.37;1.20;;;;;;;38.37;24.58;98741.75;5134561;27;42190;-78
2022/06/26 11:17:59;;;;;;;1.17;1.17;;;;;;;38.49;26.40;98731.22;5112670;27;39208;-76
2022/06/26 11:20:49;;;;;;;1.10;1.10;;;;;;;38.23;25.09;98732.38;5134568;27;40386;-76
2022/06/26 11:23:24;;;;;;;1.30;1.20;;;;;;;38.17;25.03;98733.50;5116427;27;41730;-76
2022/06/26 11:25:55;;;;;;;0.90;0.90;;;;;;;38.17;24.76;98731.56;5134615;27;42057;-76
2022/06/26 11:28:28;;;;;;;1.10;1.10;;;;;;;38.19;25.32;98725.75;5117841;27;38882;-77
2022/06/26 11:30:58;;;;;;;1.27;1.17;;;;;;;38.34;25.22;98728.47;5136346;27;41027;-77
2022/06/26 11:33:27;;;;;;;1.20;1.10;;;;;;;38.50;24.81;98735.66;5140297;27;41808;-77
2022/06/26 11:35:56;;;;;;;1.40;1.30;;;;;;;38.76;24.88;98717.88;5123847;27;41845;-77
2022/06/26 11:38:25;;;;;;;1.07;1.07;;;;;;;38.79;24.20;98731.19;5141621;27;39466;-77
2022/06/26 11:40:53;;;;;;;1.80;1.70;;;;;;;38.78;23.91;98723.97;5142983;27;40772;-79
2022/06/26 11:43:21;;;;;;;1.10;1.10;;;;;;;38.79;24.80;98725.63;5141359;27;42905;-77
2022/06/26 11:45:49;;;;;;;1.00;1.00;;;;;;;38.96;23.90;98724.44;5139465;27;42258;-78
2022/06/26 11:48:18;;;;;;;1.40;1.30;;;;;;;38.90;23.28;98733.91;5140569;27;40127;-78
2022/06/26 11:50:50;;;;;;;1.13;1.03;;;;;;;38.53;23.94;98737.91;5142118;27;42221;-78
2022/06/26 11:53:20;;;;;;;1.13;1.13;;;;;;;38.14;24.56;98736.81;5141191;27;41572;-79
2022/06/26 11:55:51;;;;;;;1.20;1.20;;;;;;;37.81;24.57;98725.19;5123146;27;41406;-76
2022/06/26 11:58:22;;;;;;;1.30;1.20;;;;;;;37.74;25.23;98713.56;5140301;27;40107;-77
2022/06/26 12:00:51;;;;;;;1.03;1.03;;;;;;;38.10;25.26;98715.25;5134693;27;42291;-78
2022/06/26 12:03:19;;;;;;;0.90;0.90;;;;;;;38.52;25.15;98718.78;5133132;27;42730;-77
2022/06/26 12:05:47;;;;;;;1.33;1.25;;;;;;;39.26;24.09;98717.97;5132909;27;41078;-78